Time;durP1;ratioP1;P1;durP2;ratioP2;P2;SDS_P1;SDS_P2;PMS_P1;PMS_P2;Temp;Humidity;BMP_temperature;BMP_pressure;BME280_temperature;BME280_humidity;BME280_pressure;Samples;Min_cycle;Max_cycle;Signal;HPM_P1;HPM_P2
2021/06/17 00:01:00;;;;;;;3.83;2.95;;;24.10;61.00;;;;;;2089697;28;20091;-85
2021/06/17 00:02:05;;;;;;;3.65;3.05;;;24.10;61.00;;;;;;2088347;28;20040;-85
2021/06/17 00:03:06;;;;;;;4.43;2.92;;;24.10;61.10;;;;;;2085952;28;20021;-85
2021/06/17 00:04:07;;;;;;;3.55;2.70;;;24.10;61.10;;;;;;2095109;28;20035;-84
2021/06/17 00:05:10;;;;;;;3.50;2.80;;;24.10;61.10;;;;;;2084315;28;20051;-85
2021/06/17 00:06:10;;;;;;;3.33;2.72;;;24.10;61.10;;;;;;2089447;28;20031;-85
2021/06/17 00:07:11;;;;;;;4.05;2.85;;;24.10;61.10;;;;;;2089217;28;20033;-85
2021/06/17 00:08:12;;;;;;;5.07;3.22;;;24.00;61.00;;;;;;2085965;28;20021;-85
2021/06/17 00:09:13;;;;;;;3.42;2.75;;;24.00;61.10;;;;;;2080062;28;20089;-84
2021/06/17 00:10:25;;;;;;;3.67;2.75;;;24.00;61.10;;;;;;2086871;28;20552;-86
2021/06/17 00:11:26;;;;;;;3.80;2.92;;;24.00;61.10;;;;;;2092162;28;20156;-85
2021/06/17 00:12:27;;;;;;;3.88;3.10;;;24.00;61.00;;;;;;2094431;28;20032;-85
2021/06/17 00:13:30;;;;;;;4.60;3.22;;;24.10;61.10;;;;;;2089399;28;20025;-85
2021/06/17 00:14:32;;;;;;;4.35;3.25;;;24.00;61.00;;;;;;2092206;28;20155;-85
2021/06/17 00:15:34;;;;;;;3.90;3.08;;;24.00;61.00;;;;;;2089169;28;20511;-85
2021/06/17 00:16:35;;;;;;;4.10;3.15;;;24.00;61.00;;;;;;2094211;28;20180;-85
2021/06/17 00:17:36;;;;;;;3.70;2.85;;;24.00;61.10;;;;;;2080029;28;20387;-85
2021/06/17 00:18:38;;;;;;;4.72;3.10;;;24.00;61.10;;;;;;2081174;28;20462;-85
2021/06/17 00:19:39;;;;;;;5.78;2.95;;;24.00;61.10;;;;;;2075677;28;20030;-85
2021/06/17 00:20:40;;;;;;;4.22;2.97;;;24.00;61.10;;;;;;2088611;28;20028;-85
2021/06/17 00:21:41;;;;;;;4.60;3.20;;;24.00;61.10;;;;;;2081054;28;20116;-85
2021/06/17 00:22:43;;;;;;;5.07;3.10;;;24.00;61.10;;;;;;2071446;28;20026;-85
2021/06/17 00:23:44;;;;;;;4.93;3.17;;;24.00;61.20;;;;;;2080653;28;20035;-85
2021/06/17 00:24:44;;;;;;;3.78;3.10;;;24.00;61.20;;;;;;2080912;28;20558;-85
2021/06/17 00:25:45;;;;;;;5.32;3.05;;;24.00;61.20;;;;;;2073018;28;20088;-85
2021/06/17 00:26:47;;;;;;;3.75;2.90;;;23.90;61.30;;;;;;2074330;28;20022;-85
2021/06/17 00:27:48;;;;;;;4.47;3.20;;;24.00;61.30;;;;;;2080982;28;20029;-85
2021/06/17 00:28:49;;;;;;;4.93;3.38;;;23.90;61.30;;;;;;2073056;28;20271;-85
2021/06/17 00:29:49;;;;;;;4.65;3.05;;;23.90;61.40;;;;;;2081100;28;20026;-85
2021/06/17 00:30:51;;;;;;;4.45;3.20;;;23.90;61.40;;;;;;2063910;28;20579;-85
2021/06/17 00:31:51;;;;;;;4.18;3.05;;;23.90;61.50;;;;;;2064949;28;20100;-85
2021/06/17 00:32:52;;;;;;;5.03;3.08;;;23.90;61.50;;;;;;2080449;28;20523;-85
2021/06/17 00:33:53;;;;;;;4.40;2.92;;;23.90;61.50;;;;;;2079516;28;20500;-84
2021/06/17 00:34:53;;;;;;;5.55;3.33;;;23.90;61.50;;;;;;2081044;28;20056;-85
2021/06/17 00:35:54;;;;;;;4.22;3.10;;;23.90;61.60;;;;;;2086002;28;20025;-85
2021/06/17 00:36:55;;;;;;;4.13;3.30;;;23.90;61.70;;;;;;2097365;28;20056;-85
2021/06/17 00:37:57;;;;;;;6.43;3.38;;;23.90;61.70;;;;;;2087114;28;20028;-84
2021/06/17 00:38:57;;;;;;;4.72;3.20;;;23.90;61.70;;;;;;2075273;28;20041;-85
2021/06/17 00:39:59;;;;;;;4.10;2.90;;;23.80;61.70;;;;;;2064926;28;20031;-85
2021/06/17 00:41:00;;;;;;;3.85;2.90;;;23.80;61.70;;;;;;2065090;28;20057;-85
2021/06/17 00:42:00;;;;;;;4.57;3.42;;;23.80;61.70;;;;;;2076574;28;20522;-85
2021/06/17 00:43:02;;;;;;;4.53;3.30;;;23.80;61.80;;;;;;2087107;28;20048;-85
2021/06/17 00:44:03;;;;;;;5.00;3.25;;;23.80;61.90;;;;;;2077554;28;20038;-85
2021/06/17 00:45:08;;;;;;;5.90;3.55;;;23.80;62.00;;;;;;2081034;28;20052;-85
2021/06/17 00:46:08;;;;;;;4.57;3.25;;;23.80;62.00;;;;;;2086006;28;20030;-84
2021/06/17 00:47:10;;;;;;;5.70;3.40;;;23.80;62.00;;;;;;2089358;28;20104;-85
2021/06/17 00:48:12;;;;;;;4.68;3.33;;;23.80;62.10;;;;;;2081075;28;20037;-85
2021/06/17 00:49:13;;;;;;;4.55;3.20;;;23.80;62.20;;;;;;2093148;28;20478;-85
2021/06/17 00:50:15;;;;;;;4.82;3.45;;;23.70;62.10;;;;;;2084327;28;20045;-85
2021/06/17 00:51:15;;;;;;;6.40;3.60;;;23.80;62.20;;;;;;2085099;28;20036;-85
2021/06/17 00:52:17;;;;;;;5.43;3.63;;;23.80;62.30;;;;;;2089149;28;20032;-85
2021/06/17 00:53:23;;;;;;;4.13;3.42;;;23.70;62.30;;;;;;2087977;28;20040;-84
2021/06/17 00:54:32;;;;;;;4.88;3.40;;;23.70;62.40;;;;;;2090133;28;20128;-85
2021/06/17 00:55:33;;;;;;;4.25;3.22;;;23.70;62.50;;;;;;2089200;28;20025;-84
2021/06/17 00:56:34;;;;;;;4.85;3.40;;;23.70;62.50;;;;;;2082914;28;20620;-85
2021/06/17 00:57:36;;;;;;;5.57;3.40;;;23.70;62.50;;;;;;2094924;28;20032;-85
2021/06/17 00:58:37;;;;;;;4.55;3.10;;;23.70;62.60;;;;;;2090871;28;20021;-85
2021/06/17 00:59:38;;;;;;;4.25;3.35;;;23.70;62.70;;;;;;2084224;28;20438;-85
2021/06/17 01:00:39;;;;;;;4.72;3.33;;;23.60;62.70;;;;;;2086743;28;20021;-85
2021/06/17 01:01:40;;;;;;;4.22;3.38;;;23.60;62.70;;;;;;2081505;28;20052;-85
2021/06/17 01:02:40;;;;;;;7.07;3.80;;;23.60;62.80;;;;;;2090785;28;20029;-85
2021/06/17 01:03:41;;;;;;;4.43;3.60;;;23.60;62.80;;;;;;2082510;28;20040;-85
2021/06/17 01:04:42;;;;;;;4.80;3.60;;;23.60;62.80;;;;;;2074230;28;20500;-85
2021/06/17 01:05:43;;;;;;;4.90;3.10;;;23.60;62.90;;;;;;2083668;28;20025;-85
2021/06/17 01:06:44;;;;;;;4.38;3.00;;;23.60;62.90;;;;;;2091812;28;20028;-85
2021/06/17 01:07:57;;;;;;;4.32;3.25;;;23.60;62.90;;;;;;2088377;28;20029;-85
2021/06/17 01:09:05;;;;;;;4.43;3.20;;;23.60;63.00;;;;;;2082591;28;20391;-85
2021/06/17 01:10:25;;;;;;;4.30;3.30;;;23.60;63.00;;;;;;2090350;28;20021;-85
2021/06/17 01:11:40;;;;;;;4.30;3.20;;;23.50;62.90;;;;;;2090894;28;20074;-85
2021/06/17 01:12:59;;;;;;;4.82;3.13;;;23.60;63.00;;;;;;2084510;28;20034;-85
2021/06/17 01:14:05;;;;;;;4.75;3.00;;;23.50;63.00;;;;;;2092908;28;20558;-85
2021/06/17 01:15:12;;;;;;;6.72;3.50;;;23.50;63.00;;;;;;2090783;28;20029;-85
2021/06/17 01:16:16;;;;;;;4.15;3.28;;;23.50;63.10;;;;;;2076216;28;20028;-85
2021/06/17 01:17:19;;;;;;;5.03;3.30;;;23.50;63.10;;;;;;2082910;28;20486;-85
2021/06/17 01:18:21;;;;;;;4.70;3.40;;;23.50;63.10;;;;;;2095400;28;20030;-85
2021/06/17 01:19:34;;;;;;;4.15;3.33;;;23.40;63.10;;;;;;2081538;28;20026;-85
2021/06/17 01:20:53;;;;;;;4.57;3.78;;;23.50;63.10;;;;;;2082474;28;20032;-84
2021/06/17 01:22:07;;;;;;;3.83;3.15;;;23.50;63.10;;;;;;2077412;28;20431;-85
2021/06/17 01:23:30;;;;;;;4.25;3.33;;;23.50;63.10;;;;;;2083543;28;20072;-85
2021/06/17 01:25:02;;;;;;;4.10;3.00;;;23.40;63.10;;;;;;2090683;28;20087;-85
2021/06/17 01:26:32;;;;;;;4.85;3.47;;;23.50;63.10;;;;;;2095342;28;20513;-84
2021/06/17 01:27:39;;;;;;;4.00;3.10;;;23.40;63.10;;;;;;2094422;28;20076;-84
2021/06/17 01:28:42;;;;;;;4.32;3.20;;;23.40;63.10;;;;;;2082831;28;20026;-84
2021/06/17 01:29:48;;;;;;;5.50;3.00;;;23.40;63.10;;;;;;2090467;28;20025;-85
2021/06/17 01:30:59;;;;;;;4.18;2.85;;;23.40;63.20;;;;;;2095409;28;20069;-85
2021/06/17 01:32:00;;;;;;;4.20;3.22;;;23.40;63.20;;;;;;2096768;28;20063;-86
2021/06/17 01:33:04;;;;;;;4.47;3.20;;;23.40;63.30;;;;;;2088608;28;20036;-86
2021/06/17 01:34:05;;;;;;;4.18;3.35;;;23.40;63.30;;;;;;2098700;28;20521;-85
2021/06/17 01:35:09;;;;;;;5.72;3.40;;;23.40;63.30;;;;;;2085074;28;20028;-85
2021/06/17 01:36:17;;;;;;;4.68;3.35;;;23.40;63.40;;;;;;2090267;28;20040;-85
2021/06/17 01:37:21;;;;;;;3.88;3.17;;;23.40;63.40;;;;;;2088461;28;20086;-85
2021/06/17 01:38:25;;;;;;;4.75;3.53;;;23.40;63.40;;;;;;2074739;28;20037;-86
2021/06/17 01:39:26;;;;;;;4.07;3.20;;;23.40;63.40;;;;;;2079274;28;20120;-85
2021/06/17 01:40:29;;;;;;;4.85;3.45;;;23.40;63.50;;;;;;2073851;28;20044;-85
2021/06/17 01:41:38;;;;;;;5.00;3.33;;;23.40;63.50;;;;;;2085598;28;20127;-85
2021/06/17 01:42:42;;;;;;;5.07;3.35;;;23.40;63.50;;;;;;2098243;28;20028;-86
2021/06/17 01:43:44;;;;;;;4.38;3.20;;;23.30;63.40;;;;;;2094771;28;20025;-85
2021/06/17 01:44:46;;;;;;;4.38;3.22;;;23.40;63.50;;;;;;2087979;28;20099;-84
2021/06/17 01:45:49;;;;;;;5.38;3.30;;;23.40;63.40;;;;;;2093114;28;20029;-85
2021/06/17 01:46:50;;;;;;;4.35;2.88;;;23.40;63.50;;;;;;2099264;28;20036;-84
2021/06/17 01:47:53;;;;;;;5.18;3.40;;;23.40;63.50;;;;;;2083401;28;20050;-84
2021/06/17 01:48:55;;;;;;;5.68;3.22;;;23.40;63.50;;;;;;2081948;28;20498;-84
2021/06/17 01:49:57;;;;;;;4.68;3.30;;;23.40;63.50;;;;;;2079870;28;20041;-85
2021/06/17 01:50:58;;;;;;;4.50;3.35;;;23.40;63.60;;;;;;2088476;28;20033;-84
2021/06/17 01:52:00;;;;;;;4.10;3.10;;;23.40;63.60;;;;;;2080713;28;20022;-84
2021/06/17 01:53:00;;;;;;;5.00;3.60;;;23.40;63.70;;;;;;2086901;28;20022;-84
2021/06/17 01:54:02;;;;;;;4.45;3.20;;;23.40;63.70;;;;;;2103158;28;20127;-86
2021/06/17 01:55:04;;;;;;;4.57;3.40;;;23.40;63.70;;;;;;2096291;28;20036;-85
2021/06/17 01:56:07;;;;;;;4.80;3.40;;;23.40;63.70;;;;;;2094318;28;20048;-85
2021/06/17 01:57:09;;;;;;;4.18;3.20;;;23.40;63.70;;;;;;2092600;28;20028;-84
2021/06/17 01:58:13;;;;;;;4.40;3.28;;;23.40;63.80;;;;;;2091224;28;20021;-85
2021/06/17 01:59:15;;;;;;;4.63;3.35;;;23.40;63.90;;;;;;2092147;28;20036;-85
2021/06/17 02:00:16;;;;;;;5.07;3.25;;;23.30;63.90;;;;;;2077245;28;20053;-85
2021/06/17 02:01:18;;;;;;;4.35;3.22;;;23.30;63.90;;;;;;2077868;28;20511;-85
2021/06/17 02:02:20;;;;;;;4.50;3.53;;;23.30;63.90;;;;;;2090703;28;20647;-85
2021/06/17 02:03:23;;;;;;;5.43;3.50;;;23.30;64.00;;;;;;2084456;28;20084;-85
2021/06/17 02:04:27;;;;;;;5.57;3.85;;;23.30;64.00;;;;;;2081629;28;20025;-85
2021/06/17 02:05:28;;;;;;;4.22;3.53;;;23.30;64.00;;;;;;2088470;28;20480;-85
2021/06/17 02:06:30;;;;;;;4.45;3.72;;;23.30;64.10;;;;;;2065085;28;20481;-85
2021/06/17 02:07:32;;;;;;;5.35;3.58;;;23.30;64.10;;;;;;2074881;28;20117;-85
2021/06/17 02:08:33;;;;;;;4.25;3.28;;;23.30;64.10;;;;;;2087657;28;20029;-85
2021/06/17 02:09:34;;;;;;;6.40;3.88;;;23.30;64.10;;;;;;2096280;28;20044;-84
2021/06/17 02:10:38;;;;;;;4.78;3.50;;;23.30;64.20;;;;;;2104873;28;20035;-85
2021/06/17 02:11:39;;;;;;;4.72;3.58;;;23.30;64.30;;;;;;2100446;28;20031;-85
2021/06/17 02:12:41;;;;;;;4.40;3.50;;;23.20;64.20;;;;;;2099135;28;20024;-85
2021/06/17 02:13:42;;;;;;;5.20;3.63;;;23.30;64.30;;;;;;2086089;28;20038;-85
2021/06/17 02:14:44;;;;;;;4.22;3.53;;;23.30;64.30;;;;;;2090542;28;20554;-84
2021/06/17 02:15:47;;;;;;;5.93;3.97;;;23.20;64.30;;;;;;2096310;28;20127;-85
2021/06/17 02:16:50;;;;;;;5.15;3.80;;;23.20;64.30;;;;;;2097679;28;20104;-85
2021/06/17 02:17:53;;;;;;;5.68;3.90;;;23.20;64.40;;;;;;2092658;28;20017;-85
2021/06/17 02:18:55;;;;;;;5.40;3.63;;;23.20;64.40;;;;;;2082023;28;20021;-85
2021/06/17 02:19:56;;;;;;;4.88;3.88;;;23.20;64.50;;;;;;2084657;28;20022;-85
2021/06/17 02:20:57;;;;;;;6.22;4.15;;;23.20;64.50;;;;;;2097403;28;20024;-85
2021/06/17 02:22:00;;;;;;;5.35;3.85;;;23.20;64.50;;;;;;2081844;28;20045;-85
2021/06/17 02:23:07;;;;;;;4.90;3.97;;;23.20;64.60;;;;;;2075518;28;20076;-85
2021/06/17 02:24:10;;;;;;;5.13;3.90;;;23.20;65.30;;;;;;2076594;28;20022;-84
2021/06/17 02:25:15;;;;;;;4.43;3.72;;;23.20;64.70;;;;;;2083776;28;20395;-84
2021/06/17 02:26:17;;;;;;;5.00;4.10;;;23.20;65.40;;;;;;2089088;28;20028;-84
2021/06/17 02:27:27;;;;;;;4.90;3.60;;;23.20;64.80;;;;;;2089575;28;20116;-84
2021/06/17 02:28:33;;;;;;;4.82;4.10;;;23.10;64.80;;;;;;2090816;28;20028;-85
2021/06/17 02:29:42;;;;;;;5.90;4.20;;;23.20;64.90;;;;;;2081606;28;20021;-85
2021/06/17 02:30:44;;;;;;;5.45;4.05;;;23.10;64.90;;;;;;2087833;28;20050;-84
2021/06/17 02:31:49;;;;;;;5.60;4.20;;;23.10;64.90;;;;;;2091214;28;20497;-84
2021/06/17 02:32:52;;;;;;;6.75;4.53;;;23.10;65.00;;;;;;2098532;28;20036;-85
2021/06/17 02:33:53;;;;;;;5.32;4.00;;;23.10;65.00;;;;;;2086131;28;20021;-85
2021/06/17 02:34:56;;;;;;;5.53;4.40;;;23.10;65.10;;;;;;2091395;28;20388;-84
2021/06/17 02:35:57;;;;;;;5.78;4.10;;;23.10;65.10;;;;;;2081711;28;20029;-85
2021/06/17 02:36:58;;;;;;;5.30;4.28;;;23.10;65.20;;;;;;2082850;28;20545;-84
2021/06/17 02:38:03;;;;;;;5.50;4.53;;;23.10;65.20;;;;;;2075659;28;20026;-84
2021/06/17 02:39:06;;;;;;;5.72;4.47;;;23.10;65.20;;;;;;2088113;28;20021;-84
2021/06/17 02:40:09;;;;;;;5.28;4.18;;;23.10;65.30;;;;;;2105305;28;20481;-85
2021/06/17 02:41:12;;;;;;;5.53;4.13;;;23.10;65.30;;;;;;2095578;28;20036;-85
2021/06/17 02:42:15;;;;;;;5.70;4.15;;;23.10;65.30;;;;;;2098500;28;20036;-85
2021/06/17 02:43:20;;;;;;;5.80;4.47;;;23.10;65.30;;;;;;2087385;28;20075;-84
2021/06/17 02:44:25;;;;;;;5.15;4.20;;;23.00;65.30;;;;;;2087744;28;20017;-84
2021/06/17 02:45:29;;;;;;;5.55;4.50;;;23.10;65.40;;;;;;2090038;28;20036;-85
2021/06/17 02:46:30;;;;;;;5.47;4.10;;;23.10;65.40;;;;;;2098093;28;20013;-85
2021/06/17 02:47:33;;;;;;;5.50;4.45;;;23.00;65.40;;;;;;2089048;28;20021;-85
2021/06/17 02:48:34;;;;;;;5.75;4.35;;;23.00;65.50;;;;;;2082520;28;20017;-85
2021/06/17 02:49:35;;;;;;;5.90;4.35;;;23.00;65.50;;;;;;2081542;28;20030;-85
2021/06/17 02:50:36;;;;;;;5.70;4.35;;;23.00;65.60;;;;;;2073685;28;20378;-85
2021/06/17 02:51:36;;;;;;;5.07;4.15;;;23.00;65.60;;;;;;2058438;28;20521;-85
2021/06/17 02:52:40;;;;;;;5.22;4.10;;;23.00;65.60;;;;;;2057235;28;20027;-85
2021/06/17 02:53:41;;;;;;;6.50;4.80;;;23.00;65.70;;;;;;2077581;28;20025;-85
2021/06/17 02:54:42;;;;;;;6.18;4.80;;;23.00;65.70;;;;;;2089964;28;20032;-85
2021/06/17 02:55:43;;;;;;;7.15;5.25;;;23.00;65.70;;;;;;2077614;28;20030;-85
2021/06/17 02:57:04;;;;;;;6.75;4.60;;;23.00;65.80;;;;;;2080930;28;20026;-85
2021/06/17 02:58:17;;;;;;;5.53;4.78;;;23.00;65.80;;;;;;2090059;28;20036;-85
2021/06/17 02:59:45;;;;;;;6.88;5.28;;;22.90;65.70;;;;;;2090397;28;20036;-85
2021/06/17 03:00:55;;;;;;;6.25;5.20;;;23.00;65.80;;;;;;2089332;28;20028;-85
2021/06/17 03:02:21;;;;;;;6.60;4.93;;;23.00;65.80;;;;;;2088573;28;20036;-86
2021/06/17 03:03:33;;;;;;;6.00;4.70;;;23.00;65.70;;;;;;2085148;28;20025;-86
2021/06/17 03:04:44;;;;;;;6.25;4.80;;;23.00;65.70;;;;;;2088359;28;20017;-85
2021/06/17 03:05:54;;;;;;;5.95;4.85;;;23.00;65.70;;;;;;2084578;28;20415;-86
2021/06/17 03:06:55;;;;;;;6.35;4.70;;;22.90;65.70;;;;;;2082982;28;20112;-86
2021/06/17 03:08:11;;;;;;;6.65;5.03;;;23.00;65.70;;;;;;2081808;28;20404;-85
2021/06/17 03:09:21;;;;;;;6.18;5.43;;;22.90;65.70;;;;;;2083725;28;20552;-86
2021/06/17 03:10:23;;;;;;;6.40;5.50;;;23.00;65.70;;;;;;2090250;28;20025;-85
2021/06/17 03:11:31;;;;;;;6.88;5.20;;;23.00;65.70;;;;;;2075283;28;20034;-85
2021/06/17 03:12:33;;;;;;;7.13;5.60;;;23.00;65.70;;;;;;2087898;28;20112;-85
2021/06/17 03:13:36;;;;;;;7.13;5.05;;;23.00;65.70;;;;;;2081562;28;20159;-85
2021/06/17 03:14:39;;;;;;;7.97;5.35;;;23.00;65.70;;;;;;2074583;28;20488;-85
2021/06/17 03:15:44;;;;;;;8.50;5.40;;;23.00;65.70;;;;;;2084220;28;20533;-85
2021/06/17 03:16:49;;;;;;;6.50;4.95;;;23.00;65.70;;;;;;2089713;28;20024;-85
2021/06/17 03:17:52;;;;;;;6.10;5.05;;;23.00;65.70;;;;;;2088859;28;20021;-85
2021/06/17 03:18:55;;;;;;;8.57;5.57;;;23.10;65.80;;;;;;2073844;28;20037;-85
2021/06/17 03:19:58;;;;;;;6.60;5.40;;;23.00;65.70;;;;;;2082153;28;20140;-86
2021/06/17 03:21:00;;;;;;;6.53;5.28;;;23.10;65.80;;;;;;2090708;28;20024;-85
2021/06/17 03:22:06;;;;;;;7.05;5.22;;;23.00;65.70;;;;;;2089750;28;20106;-85
2021/06/17 03:23:19;;;;;;;6.68;5.50;;;23.10;65.90;;;;;;2081669;28;20018;-85
2021/06/17 03:24:23;;;;;;;6.35;5.00;;;23.10;65.90;;;;;;2086284;28;20442;-85
2021/06/17 03:25:26;;;;;;;7.43;5.47;;;23.10;65.90;;;;;;2089132;28;20116;-85
2021/06/17 03:26:28;;;;;;;6.90;5.53;;;23.10;65.90;;;;;;2078966;28;20029;-85
2021/06/17 03:27:29;;;;;;;6.93;5.60;;;23.00;65.90;;;;;;2080338;28;20061;-85
2021/06/17 03:28:31;;;;;;;6.78;5.18;;;23.10;66.00;;;;;;2081434;28;20030;-85
2021/06/17 03:29:38;;;;;;;6.82;5.15;;;23.00;66.00;;;;;;2087475;28;20470;-85
2021/06/17 03:30:45;;;;;;;7.25;6.03;;;23.10;66.00;;;;;;2094607;28;20019;-85
2021/06/17 03:31:45;;;;;;;6.90;5.47;;;23.10;66.10;;;;;;2084763;28;20035;-86
2021/06/17 03:32:48;;;;;;;6.45;5.78;;;23.10;66.00;;;;;;2086359;28;20478;-86
2021/06/17 03:33:50;;;;;;;6.55;5.25;;;23.10;66.10;;;;;;2080846;28;20030;-86
2021/06/17 03:34:52;;;;;;;7.15;5.57;;;23.10;66.10;;;;;;2095006;28;20057;-86
2021/06/17 03:35:53;;;;;;;6.65;5.43;;;23.10;66.20;;;;;;2090950;28;20388;-86
2021/06/17 03:36:56;;;;;;;6.80;5.43;;;23.10;66.20;;;;;;2082583;28;20554;-86
2021/06/17 03:37:57;;;;;;;7.05;5.65;;;23.10;66.20;;;;;;2082359;28;20044;-86
2021/06/17 03:38:58;;;;;;;7.80;6.18;;;23.00;66.20;;;;;;2083027;28;20514;-85
2021/06/17 03:40:00;;;;;;;7.07;6.07;;;23.00;66.30;;;;;;2074707;28;20022;-86
2021/06/17 03:41:02;;;;;;;7.75;5.75;;;23.10;66.40;;;;;;2088362;28;20086;-86
2021/06/17 03:42:06;;;;;;;7.75;6.00;;;23.00;66.40;;;;;;2075120;28;20041;-86
2021/06/17 03:43:08;;;;;;;7.60;6.22;;;23.00;66.40;;;;;;2082363;28;20053;-85
2021/06/17 03:44:10;;;;;;;6.60;5.63;;;23.00;66.40;;;;;;2083066;28;20029;-85
2021/06/17 03:45:12;;;;;;;6.95;5.78;;;23.00;66.50;;;;;;2089956;28;20404;-85
2021/06/17 03:46:16;;;;;;;6.55;5.60;;;23.00;66.50;;;;;;2081635;28;20041;-86
2021/06/17 03:47:17;;;;;;;6.53;5.65;;;23.00;66.50;;;;;;2078496;28;20510;-85
2021/06/17 03:48:18;;;;;;;8.85;6.05;;;23.00;66.60;;;;;;2089698;28;20032;-85
2021/06/17 03:49:22;;;;;;;7.60;6.35;;;23.00;66.60;;;;;;2089656;28;20025;-86
2021/06/17 03:50:24;;;;;;;6.72;6.03;;;23.00;66.60;;;;;;2090223;28;20118;-84
2021/06/17 03:51:25;;;;;;;7.88;5.68;;;23.00;66.60;;;;;;2096566;28;20020;-85
2021/06/17 03:52:27;;;;;;;7.55;5.80;;;23.00;66.60;;;;;;2077748;28;20483;-85
2021/06/17 03:53:28;;;;;;;6.15;5.50;;;23.00;66.60;;;;;;2081709;28;20022;-85
2021/06/17 03:54:30;;;;;;;7.32;6.07;;;23.00;66.70;;;;;;2089601;28;20491;-85
2021/06/17 03:55:33;;;;;;;7.30;5.55;;;23.00;66.70;;;;;;2072486;28;20092;-84
2021/06/17 03:56:34;;;;;;;7.00;5.70;;;23.00;66.70;;;;;;2084558;28;20520;-84
2021/06/17 03:57:36;;;;;;;7.35;5.85;;;23.00;66.70;;;;;;2084366;28;20067;-85
2021/06/17 03:58:37;;;;;;;7.18;6.43;;;23.00;66.70;;;;;;2080486;28;20029;-86
2021/06/17 03:59:40;;;;;;;7.05;5.90;;;23.00;66.70;;;;;;2079168;28;20136;-85
2021/06/17 04:00:42;;;;;;;6.97;5.75;;;23.00;66.70;;;;;;2079526;28;20017;-85
2021/06/17 04:01:43;;;;;;;6.65;5.68;;;23.00;66.70;;;;;;2091075;28;20071;-85
2021/06/17 04:02:44;;;;;;;6.47;5.15;;;23.00;66.70;;;;;;2081257;28;20451;-86
2021/06/17 04:03:46;;;;;;;5.72;5.03;;;23.00;66.70;;;;;;2072962;28;20049;-85
2021/06/17 04:04:47;;;;;;;6.10;5.32;;;23.00;66.70;;;;;;2077535;28;20018;-86
2021/06/17 04:05:48;;;;;;;6.18;5.32;;;23.00;66.70;;;;;;2078031;28;20026;-85
2021/06/17 04:06:52;;;;;;;6.53;5.15;;;23.00;66.60;;;;;;2089524;28;20025;-85
2021/06/17 04:07:59;;;;;;;7.38;5.00;;;23.00;66.70;;;;;;2089400;28;20059;-85
2021/06/17 04:09:00;;;;;;;6.32;5.53;;;23.00;66.70;;;;;;2090124;28;20036;-85
2021/06/17 04:10:03;;;;;;;7.30;5.70;;;23.00;66.70;;;;;;2097438;28;20032;-85
2021/06/17 04:11:07;;;;;;;7.07;5.90;;;23.00;66.70;;;;;;2096786;28;20028;-84
2021/06/17 04:12:10;;;;;;;6.57;5.68;;;23.10;66.80;;;;;;2089645;28;20029;-85
2021/06/17 04:13:13;;;;;;;7.32;5.50;;;23.10;66.80;;;;;;2089448;28;20035;-84
2021/06/17 04:14:13;;;;;;;6.30;5.43;;;23.10;66.80;;;;;;2089387;28;20075;-84
2021/06/17 04:15:17;;;;;;;7.13;5.50;;;23.10;66.70;;;;;;2080492;28;20030;-84
2021/06/17 04:16:22;;;;;;;6.40;5.43;;;23.10;66.70;;;;;;2069531;28;20515;-84
2021/06/17 04:17:26;;;;;;;6.65;5.95;;;23.10;66.60;;;;;;2066092;28;20026;-85
2021/06/17 04:18:30;;;;;;;6.95;5.70;;;23.20;66.60;;;;;;2083151;28;20025;-84
2021/06/17 04:19:33;;;;;;;6.50;5.80;;;23.20;66.50;;;;;;2088454;28;20063;-84
2021/06/17 04:20:45;;;;;;;6.53;5.80;;;23.20;66.50;;;;;;2082892;28;20473;-85
2021/06/17 04:21:48;;;;;;;6.95;5.53;;;23.20;66.40;;;;;;2091413;28;20079;-85
2021/06/17 04:22:51;;;;;;;7.18;5.95;;;23.20;66.40;;;;;;2089381;28;20028;-83
2021/06/17 04:23:55;;;;;;;7.13;5.70;;;23.20;66.30;;;;;;2088990;28;20025;-85
2021/06/17 04:25:05;;;;;;;7.78;6.00;;;23.20;66.30;;;;;;2089874;28;20024;-84
2021/06/17 04:26:08;;;;;;;6.32;5.35;;;23.20;66.40;;;;;;2097460;28;20393;-84
2021/06/17 04:27:08;;;;;;;7.18;5.55;;;23.20;66.40;;;;;;2090751;28;20151;-84
2021/06/17 04:28:11;;;;;;;6.72;5.97;;;23.20;66.40;;;;;;2080057;28;20033;-84
2021/06/17 04:29:16;;;;;;;6.68;5.85;;;23.20;66.40;;;;;;2072444;28;20029;-84
2021/06/17 04:30:18;;;;;;;7.00;5.80;;;23.20;66.40;;;;;;2073576;28;20073;-84
2021/06/17 04:31:19;;;;;;;8.00;6.07;;;23.20;66.40;;;;;;2093806;28;20515;-83
2021/06/17 04:32:21;;;;;;;6.70;5.72;;;23.20;66.30;;;;;;2085249;28;20029;-84
2021/06/17 04:33:23;;;;;;;7.30;5.70;;;23.20;66.30;;;;;;2081224;28;20029;-85
2021/06/17 04:34:24;;;;;;;5.80;4.90;;;23.20;66.30;;;;;;2082865;28;20025;-85
2021/06/17 04:35:26;;;;;;;6.80;5.40;;;23.30;66.30;;;;;;2072528;28;20065;-84
2021/06/17 04:36:27;;;;;;;6.22;5.47;;;23.30;66.20;;;;;;2072061;28;20109;-84
2021/06/17 04:37:29;;;;;;;6.85;5.63;;;23.30;66.20;;;;;;2082773;28;20060;-84
2021/06/17 04:38:30;;;;;;;7.28;6.20;;;23.30;66.20;;;;;;2081075;28;20519;-85
2021/06/17 04:39:31;;;;;;;7.70;6.47;;;23.30;66.20;;;;;;2081233;28;20137;-83
2021/06/17 04:40:34;;;;;;;7.28;6.07;;;23.30;66.20;;;;;;2071835;28;20018;-84
2021/06/17 04:41:37;;;;;;;7.13;5.90;;;23.30;66.20;;;;;;2072910;28;20484;-84
2021/06/17 04:42:38;;;;;;;8.60;6.20;;;23.30;66.20;;;;;;2073819;28;20034;-83
2021/06/17 04:43:39;;;;;;;7.32;5.95;;;23.30;66.20;;;;;;2069718;28;20018;-83
2021/06/17 04:44:41;;;;;;;6.32;5.53;;;23.20;66.30;;;;;;2078909;28;20115;-84
2021/06/17 04:45:43;;;;;;;6.53;5.70;;;23.30;66.40;;;;;;2080841;28;20018;-84
2021/06/17 04:46:47;;;;;;;7.30;5.38;;;23.30;66.40;;;;;;2084551;28;20123;-84
2021/06/17 04:47:49;;;;;;;7.97;5.97;;;23.20;66.40;;;;;;2095757;28;20167;-84
2021/06/17 04:48:51;;;;;;;8.68;6.28;;;23.30;66.40;;;;;;2081319;28;20057;-84
2021/06/17 04:49:51;;;;;;;6.57;5.50;;;23.20;66.50;;;;;;2073414;28;20018;-84
2021/06/17 04:50:52;;;;;;;7.93;5.75;;;23.20;66.40;;;;;;2072867;28;20066;-84
2021/06/17 04:51:55;;;;;;;7.05;5.95;;;23.30;66.40;;;;;;2081720;28;20023;-84
2021/06/17 04:52:55;;;;;;;7.47;6.07;;;23.30;66.40;;;;;;2081178;28;20037;-84
2021/06/17 04:53:56;;;;;;;6.57;5.80;;;23.30;66.40;;;;;;2080809;28;20091;-84
2021/06/17 04:54:56;;;;;;;7.68;6.43;;;23.30;66.30;;;;;;2078489;28;20077;-84
2021/06/17 04:55:57;;;;;;;8.27;6.32;;;23.40;66.30;;;;;;2090027;28;20029;-84
2021/06/17 04:56:58;;;;;;;10.40;5.60;;;23.40;66.20;;;;;;2089097;28;20128;-84
2021/06/17 04:57:58;;;;;;;7.25;5.90;;;23.50;66.20;;;;;;2080040;28;20026;-84
2021/06/17 04:58:59;;;;;;;7.85;5.90;;;23.50;66.00;;;;;;2066102;28;20121;-83
2021/06/17 05:00:00;;;;;;;7.25;6.00;;;23.60;65.90;;;;;;2079182;28;20022;-84
2021/06/17 05:01:01;;;;;;;6.70;5.50;;;23.60;65.70;;;;;;2074520;28;20080;-84
2021/06/17 05:02:03;;;;;;;8.05;5.75;;;23.70;65.70;;;;;;2066895;28;20407;-84
2021/06/17 05:03:04;;;;;;;7.22;5.75;;;23.70;65.50;;;;;;2079833;28;20034;-84
2021/06/17 05:04:04;;;;;;;6.18;5.57;;;23.80;65.40;;;;;;2090488;28;20079;-84
2021/06/17 05:05:08;;;;;;;7.00;5.60;;;23.80;65.30;;;;;;2080405;28;20106;-84
2021/06/17 05:06:10;;;;;;;8.43;5.55;;;23.90;65.20;;;;;;2072356;28;20034;-84
2021/06/17 05:11:51;;;;;;;;;;;24.20;64.40;;;;;;2084001;28;20029;-85
2021/06/17 05:12:52;;;;;;;5.75;4.93;;;24.20;64.30;;;;;;2097587;28;20291;-84
2021/06/17 05:13:53;;;;;;;7.10;5.20;;;24.30;64.20;;;;;;2084149;28;20072;-84
2021/06/17 05:14:53;;;;;;;7.05;5.07;;;24.30;64.10;;;;;;2071245;28;20102;-84
2021/06/17 05:15:56;;;;;;;5.68;4.93;;;24.40;64.10;;;;;;2083044;28;20029;-83
2021/06/17 05:16:57;;;;;;;6.38;5.00;;;24.40;64.00;;;;;;2082375;28;20120;-84
2021/06/17 05:17:58;;;;;;;5.53;4.70;;;24.50;63.90;;;;;;2094788;28;20029;-85
2021/06/17 05:18:58;;;;;;;7.22;6.00;;;24.50;63.70;;;;;;2080807;28;20033;-84
2021/06/17 05:19:59;;;;;;;6.40;4.95;;;24.60;63.60;;;;;;2080969;28;20048;-85
2021/06/17 05:21:00;;;;;;;7.95;5.32;;;24.60;63.50;;;;;;2089534;28;20021;-83
2021/06/17 05:22:01;;;;;;;6.22;5.22;;;24.60;63.40;;;;;;2083988;28;20045;-84
2021/06/17 05:23:03;;;;;;;6.28;5.30;;;24.70;63.40;;;;;;2076040;28;20069;-84
2021/06/17 05:24:04;;;;;;;6.32;5.28;;;24.70;63.30;;;;;;2072675;28;20021;-84
2021/06/17 05:25:05;;;;;;;7.72;5.00;;;24.70;63.20;;;;;;2064363;28;20495;-84
2021/06/17 05:26:07;;;;;;;6.57;5.15;;;24.80;63.20;;;;;;2076405;28;20029;-84
2021/06/17 05:27:08;;;;;;;6.43;5.30;;;24.80;63.00;;;;;;2090778;28;20082;-84
2021/06/17 05:28:13;;;;;;;5.97;5.03;;;24.80;62.90;;;;;;2097249;28;20086;-85
2021/06/17 05:29:14;;;;;;;6.38;5.03;;;24.90;63.50;;;;;;2073077;28;20449;-84
2021/06/17 05:30:15;;;;;;;6.07;4.93;;;24.90;62.70;;;;;;2073240;28;20025;-84
2021/06/17 05:31:16;;;;;;;5.60;4.80;;;24.90;62.60;;;;;;2081925;28;20030;-83
2021/06/17 05:32:18;;;;;;;6.15;5.07;;;25.00;62.50;;;;;;2082792;28;20036;-84
2021/06/17 05:33:19;;;;;;;5.95;4.80;;;25.10;62.40;;;;;;2081175;28;20407;-84
2021/06/17 05:34:20;;;;;;;6.07;4.80;;;25.10;62.30;;;;;;2089192;28;20029;-84
2021/06/17 05:35:20;;;;;;;5.90;4.70;;;25.10;62.20;;;;;;2089045;28;20021;-85